createdAt,value
2018-07-15T00:01:34.452Z,13.09
2018-07-15T00:04:02.589Z,13.03
2018-07-15T00:06:30.727Z,13.03
2018-07-15T00:08:58.850Z,13.02
2018-07-15T00:11:27.021Z,12.96
2018-07-15T00:13:55.201Z,12.93
2018-07-15T00:16:23.352Z,12.81
2018-07-15T00:18:51.474Z,12.79
2018-07-15T00:21:19.628Z,12.79
2018-07-15T00:23:47.795Z,12.74
2018-07-15T00:26:15.991Z,12.79
2018-07-15T00:28:44.141Z,12.77
2018-07-15T00:31:12.285Z,12.77
2018-07-15T00:33:40.510Z,12.75
2018-07-15T00:36:08.665Z,12.74
2018-07-15T00:38:36.797Z,12.74
2018-07-15T00:41:04.970Z,12.70
2018-07-15T00:43:33.163Z,12.67
2018-07-15T00:46:01.321Z,12.64
2018-07-15T00:48:29.485Z,12.62
2018-07-15T00:50:57.630Z,12.60
2018-07-15T00:53:25.793Z,12.63
2018-07-15T00:55:53.911Z,12.52
2018-07-15T00:58:22.070Z,12.54
2018-07-15T01:00:55.493Z,12.48
2018-07-15T01:03:23.711Z,12.52
2018-07-15T01:05:51.897Z,12.45
2018-07-15T01:08:20.088Z,12.43
2018-07-15T01:10:48.286Z,12.43
2018-07-15T01:13:16.440Z,12.33
2018-07-15T01:15:44.622Z,12.33
2018-07-15T01:18:12.778Z,12.30
2018-07-15T01:20:40.978Z,12.34
2018-07-15T01:23:09.150Z,12.34
2018-07-15T01:25:37.323Z,12.34
2018-07-15T01:28:05.657Z,12.29
2018-07-15T01:30:33.837Z,12.34
2018-07-15T01:33:02.018Z,12.26
2018-07-15T01:35:30.165Z,12.24
2018-07-15T01:37:58.327Z,12.19
2018-07-15T01:40:26.508Z,12.15
2018-07-15T01:42:54.680Z,12.12
2018-07-15T01:45:22.951Z,12.06
2018-07-15T01:47:51.135Z,12.09
2018-07-15T01:50:19.689Z,12.06
2018-07-15T01:52:47.905Z,12.12
2018-07-15T01:55:16.091Z,12.13
2018-07-15T01:57:44.334Z,12.12
2018-07-15T02:00:12.496Z,12.12
2018-07-15T02:02:40.643Z,12.02
2018-07-15T02:05:08.828Z,12.02
2018-07-15T02:07:37.853Z,12.03
2018-07-15T02:10:06.101Z,11.97
2018-07-15T02:12:34.271Z,11.95
2018-07-15T02:15:02.394Z,11.86
2018-07-15T02:17:30.602Z,11.89
2018-07-15T02:19:58.774Z,11.93
2018-07-15T02:22:26.971Z,11.93
2018-07-15T02:24:55.105Z,11.90
2018-07-15T02:27:23.309Z,11.94
2018-07-15T02:29:51.492Z,11.93
2018-07-15T02:32:19.645Z,11.90
2018-07-15T02:34:47.814Z,11.87
2018-07-15T02:37:15.946Z,11.85
2018-07-15T02:39:44.093Z,11.81
2018-07-15T02:42:12.245Z,11.85
2018-07-15T02:44:41.353Z,11.85
2018-07-15T02:47:09.475Z,11.87
2018-07-15T02:49:38.105Z,11.76
2018-07-15T02:52:06.449Z,11.72
2018-07-15T02:54:34.614Z,11.65
2018-07-15T02:57:02.779Z,11.60
2018-07-15T02:59:30.951Z,11.66
2018-07-15T03:01:59.081Z,11.51
2018-07-15T03:04:27.284Z,11.57
2018-07-15T03:06:55.436Z,11.65
2018-07-15T03:09:23.598Z,11.65
2018-07-15T03:11:51.796Z,11.69
2018-07-15T03:14:19.966Z,11.70
2018-07-15T03:16:48.102Z,11.70
2018-07-15T03:19:16.244Z,11.66
2018-07-15T03:21:44.429Z,11.62
2018-07-15T03:24:12.620Z,11.56
2018-07-15T03:26:40.823Z,11.57
2018-07-15T03:29:08.985Z,11.61
2018-07-15T03:31:37.152Z,11.61
2018-07-15T03:34:05.355Z,11.66
2018-07-15T03:36:33.502Z,11.66
2018-07-15T03:39:01.654Z,11.71
2018-07-15T03:41:29.895Z,11.67
2018-07-15T03:43:58.118Z,11.70
2018-07-15T03:46:26.276Z,11.69
2018-07-15T03:48:54.567Z,11.64
2018-07-15T03:51:22.790Z,11.65
2018-07-15T03:53:51.026Z,11.71
2018-07-15T03:56:19.237Z,11.76
2018-07-15T03:58:47.438Z,11.73
2018-07-15T04:01:15.662Z,11.73
2018-07-15T04:03:43.917Z,11.69
2018-07-15T04:06:12.086Z,11.77
2018-07-15T04:08:40.311Z,11.90
2018-07-15T04:11:08.445Z,11.88
2018-07-15T04:13:36.604Z,11.75
2018-07-15T04:16:04.784Z,11.83
2018-07-15T04:18:32.893Z,11.94
2018-07-15T04:21:01.069Z,11.97
2018-07-15T04:23:29.237Z,12.09
2018-07-15T04:25:57.384Z,12.18
2018-07-15T04:28:25.555Z,12.30
2018-07-15T04:30:53.677Z,12.39
2018-07-15T04:33:21.836Z,12.44
2018-07-15T04:35:49.968Z,12.52
2018-07-15T04:38:18.153Z,12.66
2018-07-15T04:40:46.345Z,12.80
2018-07-15T04:43:14.578Z,13.01
2018-07-15T04:45:42.706Z,13.34
2018-07-15T04:48:10.926Z,13.19
2018-07-15T04:50:39.301Z,13.33
2018-07-15T04:53:07.528Z,13.40
2018-07-15T04:55:35.689Z,13.71
2018-07-15T04:58:03.934Z,14.20
2018-07-15T05:00:32.233Z,15.37
2018-07-15T05:03:00.446Z,15.95
2018-07-15T05:05:28.624Z,15.85
2018-07-15T05:07:56.878Z,16.50
2018-07-15T05:10:25.011Z,17.73
2018-07-15T05:12:53.225Z,19.51
2018-07-15T05:15:21.385Z,20.37
2018-07-15T05:17:49.603Z,21.59
2018-07-15T05:20:17.831Z,21.96
2018-07-15T05:22:46.033Z,22.18
2018-07-15T05:25:14.216Z,21.53
2018-07-15T05:27:42.405Z,22.48
2018-07-15T05:30:10.565Z,22.29
2018-07-15T05:32:38.702Z,23.36
2018-07-15T05:35:06.908Z,22.99
2018-07-15T05:37:34.984Z,23.16
2018-07-15T05:40:03.230Z,23.05
2018-07-15T05:42:31.399Z,24.24
2018-07-15T05:44:59.577Z,23.53
2018-07-15T05:47:27.735Z,24.05
2018-07-15T05:49:55.888Z,25.39
2018-07-15T05:52:24.134Z,25.84
2018-07-15T05:54:52.298Z,23.24
2018-07-15T05:57:20.481Z,22.63
2018-07-15T05:59:48.642Z,22.72
2018-07-15T06:02:16.830Z,23.49
2018-07-15T06:04:45.006Z,24.11
2018-07-15T06:07:13.143Z,25.07
2018-07-15T06:09:42.268Z,26.59
2018-07-15T06:12:10.463Z,26.37
2018-07-15T06:14:38.638Z,24.92
2018-07-15T06:17:06.812Z,27.33
2018-07-15T06:19:34.976Z,26.08
2018-07-15T06:22:03.109Z,25.03
2018-07-15T06:24:31.279Z,24.09
2018-07-15T06:26:59.498Z,26.45
2018-07-15T06:29:27.618Z,25.00
2018-07-15T06:31:55.842Z,25.17
2018-07-15T06:34:24.090Z,25.68
2018-07-15T06:36:52.246Z,25.67
2018-07-15T06:39:20.422Z,25.63
2018-07-15T06:41:48.589Z,25.62
2018-07-15T06:44:16.735Z,24.71
2018-07-15T06:46:44.950Z,26.50
2018-07-15T06:49:13.146Z,26.05
2018-07-15T06:51:41.327Z,26.67
2018-07-15T06:54:09.474Z,25.91
2018-07-15T06:56:37.623Z,26.78
2018-07-15T06:59:05.804Z,28.23
2018-07-15T07:01:34.002Z,26.10
2018-07-15T07:04:02.129Z,25.19
2018-07-15T07:06:30.257Z,25.70
2018-07-15T07:08:58.482Z,25.75
2018-07-15T07:11:26.666Z,25.32
2018-07-15T07:13:54.821Z,25.34
2018-07-15T07:16:23.015Z,24.78
2018-07-15T07:18:51.190Z,25.25
2018-07-15T07:21:19.338Z,26.74
2018-07-15T07:23:47.509Z,25.67
2018-07-15T07:26:15.646Z,25.67
2018-07-15T07:28:43.835Z,26.94
2018-07-15T07:31:11.974Z,26.86
2018-07-15T07:33:40.179Z,26.87
2018-07-15T07:36:08.397Z,28.79
2018-07-15T07:38:36.591Z,26.65
2018-07-15T07:41:04.789Z,28.77
2018-07-15T07:43:32.977Z,28.43
2018-07-15T07:46:01.155Z,27.32
2018-07-15T07:48:29.347Z,29.18
2018-07-15T07:50:57.787Z,28.84
2018-07-15T07:53:26.053Z,28.58
2018-07-15T07:55:54.224Z,29.06
2018-07-15T07:58:22.403Z,29.42
2018-07-15T08:00:50.574Z,27.71
2018-07-15T08:03:18.698Z,27.21
2018-07-15T08:05:46.973Z,26.30
2018-07-15T08:08:15.161Z,26.87
2018-07-15T08:10:43.407Z,26.23
2018-07-15T08:13:11.562Z,25.71
2018-07-15T08:15:39.764Z,25.99
2018-07-15T08:18:07.926Z,28.20
2018-07-15T08:20:36.062Z,26.83
2018-07-15T08:23:04.230Z,25.50
2018-07-15T08:25:32.405Z,23.69
2018-07-15T08:28:00.621Z,22.59
2018-07-15T08:31:39.599Z,23.46
2018-07-15T08:34:08.043Z,25.80
2018-07-15T08:36:36.246Z,25.36
2018-07-15T08:39:06.050Z,25.70
2018-07-15T08:41:34.367Z,25.69
2018-07-15T08:44:02.566Z,26.27
2018-07-15T08:46:30.705Z,25.32
2018-07-15T08:48:58.912Z,24.67
2018-07-15T08:51:27.066Z,23.52
2018-07-15T08:53:55.212Z,22.79
2018-07-15T08:56:23.393Z,21.76
2018-07-15T08:58:51.677Z,21.40
2018-07-15T09:01:19.992Z,21.49
2018-07-15T09:03:48.155Z,21.58
2018-07-15T09:06:16.520Z,21.59
2018-07-15T09:08:44.731Z,22.01
2018-07-15T09:11:12.921Z,21.87
2018-07-15T09:13:41.165Z,21.97
2018-07-15T09:16:09.348Z,21.95
2018-07-15T09:18:37.566Z,22.27
2018-07-15T09:21:05.754Z,22.15
2018-07-15T09:23:33.941Z,23.01
2018-07-15T09:26:02.149Z,23.36
2018-07-15T09:28:30.298Z,23.88
2018-07-15T09:30:58.476Z,24.20
2018-07-15T09:33:26.598Z,23.89
2018-07-15T09:35:54.748Z,23.33
2018-07-15T09:38:22.887Z,23.02
2018-07-15T09:40:51.057Z,22.52
2018-07-15T09:43:19.274Z,22.88
2018-07-15T09:45:47.466Z,23.58
2018-07-15T09:48:15.700Z,23.45
2018-07-15T09:50:43.879Z,23.50
2018-07-15T09:53:12.021Z,23.91
2018-07-15T09:55:40.244Z,23.67
2018-07-15T09:58:08.581Z,23.89
2018-07-15T10:00:42.212Z,24.04
2018-07-15T10:03:10.366Z,23.38
2018-07-15T10:05:38.495Z,23.28
2018-07-15T10:08:06.689Z,22.85
2018-07-15T10:10:34.900Z,22.66
2018-07-15T10:13:03.133Z,22.20
2018-07-15T10:15:31.290Z,22.25
2018-07-15T10:17:59.546Z,22.59
2018-07-15T10:20:27.767Z,23.08
2018-07-15T10:22:55.952Z,23.13
2018-07-15T10:25:24.141Z,22.82
2018-07-15T10:27:52.383Z,23.10
2018-07-15T10:30:20.619Z,23.86
2018-07-15T10:32:48.770Z,24.11
2018-07-15T10:35:17.049Z,24.15
2018-07-15T10:37:45.323Z,23.81
2018-07-15T10:40:13.506Z,23.00
2018-07-15T10:42:41.694Z,23.23
2018-07-15T10:45:09.920Z,23.56
2018-07-15T10:47:38.089Z,24.05
2018-07-15T10:50:06.250Z,24.07
2018-07-15T10:52:34.407Z,24.13
2018-07-15T10:55:02.606Z,24.69
2018-07-15T10:57:30.896Z,24.54
2018-07-15T10:59:59.104Z,23.77
2018-07-15T11:02:27.247Z,23.95
2018-07-15T11:04:55.432Z,24.25
2018-07-15T11:07:23.625Z,24.13
2018-07-15T11:09:51.793Z,24.12
2018-07-15T11:12:19.914Z,23.69
2018-07-15T11:14:48.014Z,23.24
2018-07-15T11:17:16.243Z,23.47
2018-07-15T11:19:44.424Z,23.79
2018-07-15T11:22:12.666Z,24.47
2018-07-15T11:24:40.785Z,24.26
2018-07-15T11:27:09.131Z,24.31
2018-07-15T11:29:38.085Z,23.73
2018-07-15T11:32:06.231Z,23.59
2018-07-15T11:34:34.428Z,23.63
2018-07-15T11:37:02.747Z,23.52
2018-07-15T11:39:30.954Z,23.73
2018-07-15T11:41:59.213Z,24.63
2018-07-15T11:44:27.497Z,24.35
2018-07-15T11:46:55.691Z,24.47
2018-07-15T11:49:23.886Z,24.17
2018-07-15T11:51:52.155Z,24.24
2018-07-15T11:54:20.386Z,24.39
2018-07-15T11:56:48.678Z,24.33
2018-07-15T11:59:16.857Z,24.04
2018-07-15T12:01:45.231Z,24.08
2018-07-15T12:04:13.586Z,24.00
2018-07-15T12:06:41.905Z,23.55
2018-07-15T12:09:10.330Z,23.31
2018-07-15T12:11:40.391Z,23.05
2018-07-15T12:14:11.943Z,22.83
2018-07-15T12:16:40.308Z,23.09
2018-07-15T12:19:12.663Z,23.41
2018-07-15T12:21:44.652Z,24.23
2018-07-15T12:24:12.842Z,24.55
2018-07-15T12:26:41.081Z,24.88
2018-07-15T12:29:09.295Z,24.99
2018-07-15T12:31:37.858Z,25.26
2018-07-15T12:34:06.028Z,24.78
2018-07-15T12:36:34.177Z,24.38
2018-07-15T12:39:02.427Z,24.35
2018-07-15T12:41:30.581Z,24.20
2018-07-15T12:43:58.768Z,24.12
2018-07-15T12:46:26.874Z,23.71
2018-07-15T12:48:55.049Z,23.63
2018-07-15T12:51:23.361Z,23.21
2018-07-15T12:53:51.551Z,23.34
2018-07-15T12:56:19.766Z,23.47
2018-07-15T12:58:48.034Z,24.00
2018-07-15T13:01:16.257Z,24.24
2018-07-15T13:03:44.491Z,24.84
2018-07-15T13:06:12.683Z,25.15
2018-07-15T13:08:40.961Z,24.89
2018-07-15T13:11:10.012Z,24.55
2018-07-15T13:13:38.137Z,24.85
2018-07-15T13:16:06.310Z,24.50
2018-07-15T13:18:34.509Z,24.11
2018-07-15T13:21:02.626Z,24.17
2018-07-15T13:23:30.763Z,24.11
2018-07-15T13:25:58.985Z,24.25
2018-07-15T13:28:27.178Z,24.66
2018-07-15T13:30:55.443Z,25.08
2018-07-15T13:33:23.586Z,24.82
2018-07-15T13:35:51.723Z,24.81
2018-07-15T13:38:19.865Z,24.83
2018-07-15T13:40:48.031Z,24.39
2018-07-15T13:43:16.242Z,23.78
2018-07-15T13:45:44.516Z,23.38
2018-07-15T13:48:12.716Z,23.28
2018-07-15T13:50:41.000Z,23.74
2018-07-15T13:53:09.129Z,24.21
2018-07-15T13:55:37.337Z,24.90
2018-07-15T13:58:05.652Z,25.18
2018-07-15T14:00:33.837Z,25.26
2018-07-15T14:03:02.022Z,25.49
2018-07-15T14:05:30.196Z,25.41
2018-07-15T14:07:58.442Z,25.28
2018-07-15T14:10:26.589Z,24.67
2018-07-15T14:12:54.738Z,24.85
2018-07-15T14:15:23.011Z,24.88
2018-07-15T14:17:51.109Z,25.13
2018-07-15T14:20:19.320Z,25.38
2018-07-15T14:22:47.556Z,25.37
2018-07-15T14:25:15.674Z,25.08
2018-07-15T14:27:43.906Z,24.50
2018-07-15T14:30:12.072Z,24.13
2018-07-15T14:32:40.294Z,23.97
2018-07-15T14:35:09.139Z,23.88
2018-07-15T14:37:37.276Z,23.74
2018-07-15T14:40:05.595Z,23.91
2018-07-15T14:42:33.796Z,24.14
2018-07-15T14:45:01.970Z,24.18
2018-07-15T14:47:30.091Z,24.27
2018-07-15T14:49:58.284Z,24.27
2018-07-15T14:52:26.510Z,24.19
2018-07-15T14:54:54.678Z,23.92
2018-07-15T14:57:22.851Z,23.68
2018-07-15T14:59:51.005Z,23.55
2018-07-15T15:02:19.174Z,23.48
2018-07-15T15:04:47.325Z,23.37
2018-07-15T15:07:16.110Z,23.32
2018-07-15T15:09:44.264Z,23.46
2018-07-15T15:12:12.409Z,23.55
2018-07-15T15:14:40.566Z,23.62
2018-07-15T15:17:08.734Z,23.66
2018-07-15T15:29:38.584Z,23.51
2018-07-15T15:34:57.375Z,23.89
2018-07-15T15:37:25.607Z,24.00
2018-07-15T15:39:53.770Z,24.22
2018-07-15T15:42:22.003Z,24.31
2018-07-15T15:44:50.247Z,24.33
2018-07-15T15:47:18.360Z,24.17
2018-07-15T15:49:46.514Z,24.15
2018-07-15T15:52:14.809Z,24.14
2018-07-15T15:54:42.959Z,24.28
2018-07-15T15:57:11.233Z,24.27
2018-07-15T15:59:39.413Z,24.22
2018-07-15T16:02:07.579Z,24.18
2018-07-15T16:04:35.780Z,24.28
2018-07-15T16:07:04.003Z,24.24
2018-07-15T16:09:32.130Z,24.18
2018-07-15T16:12:00.250Z,24.22
2018-07-15T16:14:28.482Z,24.07
2018-07-15T16:16:56.634Z,23.95
2018-07-15T16:19:24.836Z,23.87
2018-07-15T16:21:53.061Z,23.89
2018-07-15T16:24:21.200Z,23.76
2018-07-15T16:26:49.334Z,23.63
2018-07-15T16:29:17.482Z,23.50
2018-07-15T16:31:45.711Z,23.24
2018-07-15T16:34:13.886Z,23.14
2018-07-15T16:36:42.057Z,23.13
2018-07-15T16:39:10.625Z,23.05
2018-07-15T16:41:38.790Z,23.07
2018-07-15T16:44:06.962Z,23.11
2018-07-15T16:46:35.090Z,23.20
2018-07-15T16:49:03.195Z,23.24
2018-07-15T16:51:31.303Z,23.20
2018-07-15T16:53:59.493Z,23.20
2018-07-15T16:56:27.619Z,23.31
2018-07-15T16:58:55.742Z,23.39
2018-07-15T17:01:23.909Z,23.43
2018-07-15T17:03:52.038Z,23.40
2018-07-15T17:06:20.204Z,23.34
2018-07-15T17:08:48.357Z,23.28
2018-07-15T17:11:16.534Z,23.21
2018-07-15T17:13:44.792Z,23.08
2018-07-15T17:16:12.897Z,23.15
2018-07-15T17:18:41.087Z,23.16
2018-07-15T17:21:09.237Z,23.02
2018-07-15T17:23:37.441Z,23.08
2018-07-15T17:26:05.598Z,23.14
2018-07-15T17:28:33.756Z,23.15
2018-07-15T17:31:01.961Z,23.05
2018-07-15T17:33:30.104Z,23.04
2018-07-15T17:35:58.282Z,23.00
2018-07-15T17:38:26.447Z,22.96
2018-07-15T17:40:54.586Z,22.88
2018-07-15T17:43:22.770Z,22.81
2018-07-15T17:45:51.090Z,22.73
2018-07-15T17:48:19.225Z,22.72
2018-07-15T17:50:47.370Z,22.62
2018-07-15T17:53:15.501Z,22.51
2018-07-15T17:55:43.646Z,22.48
2018-07-15T17:58:11.814Z,22.45
2018-07-15T18:00:39.931Z,22.42
2018-07-15T18:03:08.057Z,22.34
2018-07-15T18:05:36.174Z,22.31
2018-07-15T18:08:04.327Z,22.34
2018-07-15T18:10:32.510Z,22.31
2018-07-15T18:13:00.652Z,22.28
2018-07-15T18:15:28.778Z,22.28
2018-07-15T18:17:56.918Z,22.26
2018-07-15T18:20:25.096Z,22.22
2018-07-15T18:22:53.213Z,22.20
2018-07-15T18:25:21.351Z,22.15
2018-07-15T18:27:49.498Z,22.10
2018-07-15T18:30:17.626Z,22.06
2018-07-15T18:32:45.784Z,22.02
2018-07-15T18:35:13.930Z,21.96
2018-07-15T18:37:42.341Z,21.88
2018-07-15T18:40:10.473Z,21.85
2018-07-15T18:42:38.617Z,21.81
2018-07-15T18:45:06.858Z,21.74
2018-07-15T18:47:34.975Z,21.70
2018-07-15T18:50:03.261Z,21.66
2018-07-15T18:52:31.393Z,21.58
2018-07-15T18:54:59.548Z,21.53
2018-07-15T18:57:27.744Z,21.53
2018-07-15T18:59:55.864Z,21.48
2018-07-15T19:02:24.014Z,21.27
2018-07-15T19:04:52.157Z,21.18
2018-07-15T19:07:20.319Z,21.12
2018-07-15T19:09:48.481Z,21.04
2018-07-15T19:12:16.595Z,20.99
2018-07-15T19:14:44.746Z,20.98
2018-07-15T19:17:12.969Z,20.92
2018-07-15T19:19:41.325Z,20.83
2018-07-15T19:22:09.514Z,20.79
2018-07-15T19:24:37.760Z,20.74
2018-07-15T19:27:05.844Z,20.61
2018-07-15T19:29:34.002Z,20.53
2018-07-15T19:32:02.161Z,20.39
2018-07-15T19:34:30.286Z,20.23
2018-07-15T19:36:58.473Z,20.10
2018-07-15T19:39:26.642Z,19.97
2018-07-15T19:41:54.808Z,19.88
2018-07-15T19:44:22.984Z,19.73
2018-07-15T19:46:51.152Z,19.56
2018-07-15T19:49:19.316Z,19.40
2018-07-15T19:51:47.526Z,19.22
2018-07-15T19:54:15.666Z,19.11
2018-07-15T19:56:43.829Z,19.01
2018-07-15T19:59:11.992Z,18.96
2018-07-15T20:01:40.180Z,18.89
2018-07-15T20:04:08.326Z,18.83
2018-07-15T20:06:36.548Z,18.80
2018-07-15T20:09:05.161Z,18.72
2018-07-15T20:11:33.281Z,18.61
2018-07-15T20:14:01.447Z,18.53
2018-07-15T20:16:29.749Z,18.46
2018-07-15T20:18:57.869Z,18.37
2018-07-15T20:21:25.983Z,18.37
2018-07-15T20:23:54.090Z,18.33
2018-07-15T20:26:22.227Z,18.21
2018-07-15T20:28:50.401Z,18.09
2018-07-15T20:31:18.552Z,17.99
2018-07-15T20:33:46.691Z,18.02
2018-07-15T20:36:14.903Z,17.96
2018-07-15T20:38:43.065Z,17.91
2018-07-15T20:41:11.197Z,17.84
2018-07-15T20:43:39.305Z,17.79
2018-07-15T20:46:07.692Z,17.77
2018-07-15T20:48:35.867Z,17.71
2018-07-15T20:51:04.037Z,17.63
2018-07-15T20:53:32.140Z,17.56
2018-07-15T20:56:00.278Z,17.51
2018-07-15T20:58:28.422Z,17.42
2018-07-15T21:00:56.673Z,17.33
2018-07-15T21:03:24.849Z,17.27
2018-07-15T21:05:53.003Z,17.24
2018-07-15T21:08:21.160Z,17.10
2018-07-15T21:10:49.327Z,16.99
2018-07-15T21:13:17.494Z,17.04
2018-07-15T21:15:45.646Z,17.03
2018-07-15T21:18:13.858Z,17.03
2018-07-15T21:20:42.036Z,16.98
2018-07-15T21:23:10.216Z,16.93
2018-07-15T21:25:38.457Z,16.98
2018-07-15T21:28:06.654Z,16.87
2018-07-15T21:30:34.820Z,16.80
2018-07-15T21:33:02.995Z,16.68
2018-07-15T21:35:31.159Z,16.53
2018-07-15T21:37:59.338Z,16.51
2018-07-15T21:40:27.513Z,16.46
2018-07-15T21:42:55.657Z,16.26
2018-07-15T21:45:23.812Z,16.33
2018-07-15T21:47:51.954Z,16.37
2018-07-15T21:50:20.160Z,16.29
2018-07-15T21:52:48.600Z,16.30
2018-07-15T21:55:16.763Z,16.28
2018-07-15T21:57:44.927Z,16.24
2018-07-15T22:00:13.092Z,16.29
2018-07-15T22:02:41.241Z,16.33
2018-07-15T22:05:09.426Z,16.22
2018-07-15T22:07:48.886Z,16.16
2018-07-15T22:10:24.343Z,15.99
2018-07-15T22:12:52.503Z,15.89
2018-07-15T22:15:20.650Z,15.92
2018-07-15T22:17:48.802Z,15.79
2018-07-15T22:20:16.938Z,15.81
2018-07-15T22:22:45.077Z,15.87
2018-07-15T22:25:13.265Z,15.85
2018-07-15T22:27:41.448Z,15.82
2018-07-15T22:30:09.619Z,15.78
2018-07-15T22:32:37.775Z,15.79
2018-07-15T22:35:05.957Z,15.77
2018-07-15T22:37:34.181Z,15.67
2018-07-15T22:40:02.385Z,15.56
2018-07-15T22:42:30.554Z,15.48
2018-07-15T22:44:58.701Z,15.32
2018-07-15T22:47:26.915Z,15.26
2018-07-15T22:49:55.109Z,15.35
2018-07-15T22:52:23.337Z,15.38
2018-07-15T22:54:51.499Z,15.39
2018-07-15T22:57:19.725Z,15.36
2018-07-15T22:59:47.849Z,15.35
2018-07-15T23:02:15.997Z,15.32
2018-07-15T23:04:56.970Z,15.23
2018-07-15T23:07:25.152Z,15.01
2018-07-15T23:09:53.302Z,15.02
2018-07-15T23:12:21.453Z,15.02
2018-07-15T23:14:49.608Z,14.98
2018-07-15T23:17:17.737Z,15.05
2018-07-15T23:19:45.917Z,15.01
2018-07-15T23:22:14.177Z,14.93
2018-07-15T23:24:42.352Z,14.87
2018-07-15T23:27:10.530Z,14.88
2018-07-15T23:29:38.648Z,14.92
2018-07-15T23:32:06.841Z,14.91
2018-07-15T23:34:34.997Z,14.91
2018-07-15T23:37:03.161Z,14.90
2018-07-15T23:39:31.357Z,14.85
2018-07-15T23:41:59.634Z,14.59
2018-07-15T23:44:27.801Z,14.53
2018-07-15T23:46:55.972Z,14.60
2018-07-15T23:49:24.128Z,14.43
2018-07-15T23:51:52.287Z,14.50
2018-07-15T23:54:20.431Z,14.49
2018-07-15T23:56:48.584Z,14.50
2018-07-15T23:59:16.818Z,14.50
